Petersburg James A Johnson Airport
PAPG : now visible

Airfield :











YOU CAN JOIN US ON...

 
LOGIN :

Register | Disclaimer

   EN    FR    IT 

 









Legend :    VFR   Marginal VFR   IFR   Intensive IFR   Very Intensive IFR
Visi :
Ceiling :
>= 8 km
>= 3000ft
5 to 8 km
1000 to 3000 ft
1500m to 5 km
500 to 1000 ft
800 to 1500m
200 to 500 ft
< 800m
< 200 ft
Symbols :   Thunderstorms  Fog  Heavy snow  Heavy precipitations  Wind > 20 kt






- Airport Elevation : 111 ft
- IATA code : PSG


PAPG - Petersburg James A Johnson

CURRENT METAR :
  • 251341Z AUTO 27004KT 3/4SM BR OVC016 01/00 A2991 RMK AO2 FZRANO

EXPIRED METARs :
  • 251256Z AUTO 25004KT 10SM OVC016 02/01 A2991 RMK AO2 SLP132 T00170011 FZRANO
  • 251156Z AUTO 26004KT 10SM OVC016 01/01 A2989 RMK AO2 SLP126 70015 T00060006 10028 20006 51024 FZRANO
  • 251133Z AUTO 24003KT 10SM SCT009 OVC018 01/01 A2989 RMK AO2 FZRANO
  • 251120Z AUTO 27004KT 5SM BR BKN009 OVC018 01/01 A2989 RMK AO2 CIG 008V013 FZRANO
  • 251112Z AUTO 27004KT 3SM BR OVC011 01/01 A2988 RMK AO2 CIG 008V013 FZRANO
  • 251056Z AUTO 27005KT 2 1/2SM BR BKN011 OVC021 01/01 A2988 RMK AO2 SLP120 T00110006 FZRANO

TAF PAPG
Valid from the 25 at 12:00 until the 26 at 12:00 UTC


251147Z 2512/2612 VRB03KT 4SM BR BKN007 OVC015
TEMPO 2512/2516 1SM BR
FM251900 10004KT P6SM VCSH OVC025
FM260400 12006KT 6SM -RA BR OVC025 WS020/16035KT
FM260600 12008KT 4SM -RA BR OVC015 WS020/16040KT AMD LTD TO CLD VIS AND WIND 2512/2515
PAZA FIR / North America



MET'MAP, your aeronautical weather chart ! - Copyright ORBIFLY December 2007 - Disclaimer

ORBIFLY MET'MAP TEAM :

Programming & Development : Alexandra Zaïnal
Concept & original design : Baudouin d'Aumeries
Assistance for programming : Marc-Olivier Méhu
Technical & hardware support : Manuel Goepfert

Contact : metmap@orbifly.com




SOURCES & CREDITS :

   NOAA       Earth
Advisory